Time;durP1;ratioP1;P1;durP2;ratioP2;P2;SDS_P1;SDS_P2;PMS_P1;PMS_P2;Temp;Humidity;BMP_temperature;BMP_pressure;BME280_temperature;BME280_humidity;BME280_pressure;Samples;Min_cycle;Max_cycle;Signal;HPM_P1;HPM_P2
2022/12/28 00:02:05;;;;;;;2.35;1.10;;;6.40;91.40;;;;;;5099404;28;20035;-75
2022/12/28 00:04:30;;;;;;;2.78;1.10;;;6.40;91.10;;;;;;5134689;28;20134;-75
2022/12/28 00:06:56;;;;;;;1.48;0.95;;;6.40;91.10;;;;;;5134480;28;20046;-75
2022/12/28 00:09:21;;;;;;;1.60;1.00;;;6.40;91.10;;;;;;5133633;27;20171;-74
2022/12/28 00:11:47;;;;;;;2.28;1.10;;;6.40;91.10;;;;;;5099141;28;20457;-75
2022/12/28 00:14:13;;;;;;;2.78;1.27;;;6.40;91.10;;;;;;5116124;28;20065;-75
2022/12/28 00:16:40;;;;;;;3.00;1.38;;;6.40;91.10;;;;;;5134270;28;20046;-75
2022/12/28 00:19:11;;;;;;;1.95;1.25;;;6.50;91.10;;;;;;5082121;28;20039;-75
2022/12/28 00:21:37;;;;;;;2.50;1.30;;;6.40;91.10;;;;;;5116330;28;20041;-76
2022/12/28 00:24:02;;;;;;;2.03;1.13;;;6.40;91.10;;;;;;5134335;28;20039;-75
2022/12/28 00:26:31;;;;;;;1.00;0.85;;;6.30;91.20;;;;;;5116558;28;20549;-75
2022/12/28 00:28:57;;;;;;;1.30;0.88;;;6.40;91.30;;;;;;5116455;28;20039;-75
2022/12/28 00:31:23;;;;;;;3.47;1.10;;;6.40;91.30;;;;;;5098777;28;20393;-76
2022/12/28 00:33:48;;;;;;;1.90;1.10;;;6.30;91.30;;;;;;5098574;28;20035;-75
2022/12/28 00:36:15;;;;;;;1.08;0.75;;;6.40;91.30;;;;;;5098817;28;20042;-75
2022/12/28 00:38:42;;;;;;;2.08;1.23;;;6.40;91.30;;;;;;5081910;28;20520;-75
2022/12/28 00:41:08;;;;;;;0.70;0.70;;;6.40;91.30;;;;;;5115640;28;20050;-75
2022/12/28 00:43:34;;;;;;;3.63;1.00;;;6.40;91.30;;;;;;5133834;28;20061;-75
2022/12/28 00:46:00;;;;;;;2.28;0.90;;;6.40;91.30;;;;;;5115719;28;20038;-75
2022/12/28 00:48:26;;;;;;;1.75;0.98;;;6.40;91.30;;;;;;5115408;28;20047;-75
2022/12/28 00:50:59;;;;;;;2.45;1.30;;;6.50;91.40;;;;;;5081689;28;20047;-75
2022/12/28 00:53:25;;;;;;;2.00;1.20;;;6.50;91.30;;;;;;5115219;28;20042;-75
2022/12/28 00:55:50;;;;;;;2.30;1.20;;;6.50;91.30;;;;;;5098308;28;20065;-75
2022/12/28 00:58:16;;;;;;;2.28;1.10;;;6.50;91.20;;;;;;5115326;28;20436;-75
2022/12/28 01:00:42;;;;;;;2.50;1.20;;;6.50;91.30;;;;;;5133746;28;20035;-75
2022/12/28 01:03:07;;;;;;;2.30;1.20;;;6.60;91.30;;;;;;5114993;28;20522;-75
2022/12/28 01:05:33;;;;;;;1.48;1.00;;;6.60;91.30;;;;;;5081039;28;20043;-75
2022/12/28 01:07:58;;;;;;;1.85;1.10;;;6.60;91.30;;;;;;5098339;28;20425;-75
2022/12/28 01:10:24;;;;;;;1.40;1.00;;;6.60;91.30;;;;;;5097804;28;20039;-75
2022/12/28 01:12:50;;;;;;;2.88;1.10;;;6.60;91.30;;;;;;5133461;28;20443;-74
2022/12/28 01:15:16;;;;;;;1.65;1.30;;;6.60;91.20;;;;;;5133079;28;20035;-75
2022/12/28 01:17:41;;;;;;;2.28;1.20;;;6.70;91.20;;;;;;5114810;28;20042;-76
2022/12/28 01:20:08;;;;;;;1.95;1.20;;;6.70;91.20;;;;;;5097706;28;20039;-75
2022/12/28 01:22:33;;;;;;;2.38;1.20;;;6.70;91.20;;;;;;5097864;28;20042;-76
2022/12/28 01:24:59;;;;;;;2.70;1.20;;;6.70;91.20;;;;;;5097756;28;20043;-75
2022/12/28 01:27:25;;;;;;;3.38;1.30;;;6.70;91.20;;;;;;5097970;28;20047;-75
2022/12/28 01:29:50;;;;;;;2.63;1.15;;;6.70;91.20;;;;;;5133108;28;20043;-74
2022/12/28 01:32:16;;;;;;;2.40;1.50;;;6.80;91.20;;;;;;5114818;28;20035;-74
2022/12/28 01:34:41;;;;;;;3.20;1.63;;;6.80;91.20;;;;;;5097629;28;20096;-74
2022/12/28 01:37:07;;;;;;;2.60;1.48;;;6.80;91.20;;;;;;5114709;28;20122;-74
2022/12/28 01:39:33;;;;;;;3.03;1.27;;;6.90;91.20;;;;;;5097560;28;20049;-75
2022/12/28 01:42:00;;;;;;;2.72;1.55;;;6.90;91.10;;;;;;5097658;28;20392;-75
2022/12/28 01:44:41;;;;;;;3.22;1.58;;;6.90;91.20;;;;;;5114657;28;20042;-75
2022/12/28 01:47:12;;;;;;;2.50;1.40;;;6.90;91.20;;;;;;5114493;28;20036;-75
2022/12/28 01:49:53;;;;;;;2.40;1.30;;;6.90;91.10;;;;;;5098150;28;20103;-75
2022/12/28 01:52:29;;;;;;;2.50;1.50;;;6.90;91.20;;;;;;5114379;28;20093;-75
2022/12/28 01:55:11;;;;;;;3.67;2.08;;;7.00;91.20;;;;;;5133244;28;20397;-75
2022/12/28 01:57:57;;;;;;;3.67;1.73;;;7.00;91.10;;;;;;5132867;28;20062;-75
2022/12/28 02:00:23;;;;;;;3.30;1.58;;;7.00;91.10;;;;;;5114430;28;20035;-74
2022/12/28 02:02:59;;;;;;;2.55;1.42;;;7.10;91.10;;;;;;5097512;28;20477;-74
2022/12/28 02:05:29;;;;;;;2.40;1.45;;;7.10;91.10;;;;;;5132527;28;20047;-74
2022/12/28 02:08:07;;;;;;;2.42;1.58;;;7.10;91.10;;;;;;5097569;28;20139;-74
2022/12/28 02:10:35;;;;;;;2.45;1.50;;;7.10;91.10;;;;;;5114076;28;20054;-73
2022/12/28 02:13:02;;;;;;;2.20;1.33;;;7.10;91.10;;;;;;5113915;28;20115;-74
2022/12/28 02:15:27;;;;;;;2.78;1.67;;;7.10;91.10;;;;;;5114270;28;20043;-74
2022/12/28 02:17:54;;;;;;;3.03;1.60;;;7.10;91.10;;;;;;5113954;28;20049;-74
2022/12/28 02:20:20;;;;;;;2.63;1.50;;;7.20;91.10;;;;;;5113919;28;20031;-73
2022/12/28 02:23:16;;;;;;;2.25;1.58;;;7.20;91.10;;;;;;5080123;28;20066;-74
2022/12/28 02:26:11;;;;;;;1.95;1.40;;;7.20;91.10;;;;;;5116902;28;20039;-74
2022/12/28 02:29:04;;;;;;;1.67;1.30;;;7.20;91.10;;;;;;5114550;28;20074;-74
2022/12/28 02:31:51;;;;;;;2.58;1.27;;;7.20;91.10;;;;;;5113668;28;20047;-74
2022/12/28 02:34:35;;;;;;;2.53;1.30;;;7.20;91.10;;;;;;5119600;28;20035;-74
2022/12/28 02:37:15;;;;;;;2.15;1.42;;;7.20;91.10;;;;;;5101976;28;20062;-76
2022/12/28 02:39:47;;;;;;;3.22;1.83;;;7.30;91.10;;;;;;5117236;28;20039;-74
2022/12/28 02:42:16;;;;;;;2.17;1.30;;;7.30;91.10;;;;;;5135954;28;20035;-74
2022/12/28 02:50:06;;;;;;;1.58;1.23;;;7.30;91.10;;;;;;5119404;28;20043;-74
2022/12/28 02:53:05;;;;;;;2.45;1.42;;;7.30;91.10;;;;;;5117499;28;20514;-76
2022/12/28 02:56:06;;;;;;;6.38;1.50;;;7.30;91.20;;;;;;5135216;28;20050;-76
2022/12/28 02:59:07;;;;;;;2.67;1.50;;;7.20;91.20;;;;;;5135513;28;20035;-76
2022/12/28 03:01:55;;;;;;;4.45;1.70;;;7.20;91.30;;;;;;5102773;28;20473;-76
2022/12/28 03:04:45;;;;;;;3.47;1.65;;;7.10;91.30;;;;;;5116932;28;20053;-76
2022/12/28 03:10:20;;;;;;;2.55;1.55;;;7.10;91.40;;;;;;5118537;28;20035;-76
2022/12/28 03:12:56;;;;;;;4.00;1.60;;;7.10;91.50;;;;;;5116865;28;20058;-76
2022/12/28 03:15:29;;;;;;;2.28;1.60;;;7.10;91.50;;;;;;5100819;28;20068;-76
2022/12/28 03:31:35;;;;;;;3.10;1.77;;;7.10;91.70;;;;;;5134888;28;20045;-76
2022/12/28 03:34:05;;;;;;;3.58;1.80;;;7.10;91.70;;;;;;5099592;28;20116;-76
2022/12/28 03:36:55;;;;;;;3.28;1.65;;;7.10;91.70;;;;;;5116240;28;20596;-76
2022/12/28 03:39:51;;;;;;;3.50;1.65;;;7.10;91.80;;;;;;5134734;28;20132;-76
2022/12/28 03:45:21;;;;;;;2.72;1.50;;;7.10;91.80;;;;;;5102618;28;20039;-75
2022/12/28 03:47:48;;;;;;;1.90;1.20;;;7.10;91.80;;;;;;5100529;28;20038;-76
2022/12/28 03:50:15;;;;;;;2.88;1.75;;;7.10;91.80;;;;;;5134555;28;20371;-76
2022/12/28 03:52:41;;;;;;;2.30;1.52;;;7.20;91.90;;;;;;5115863;28;20043;-75
2022/12/28 03:55:07;;;;;;;2.30;1.70;;;7.20;91.90;;;;;;5134387;28;20459;-76
2022/12/28 03:57:32;;;;;;;2.33;1.50;;;7.20;91.90;;;;;;5134410;28;20043;-75
2022/12/28 03:59:58;;;;;;;2.58;1.67;;;7.20;91.90;;;;;;5099098;28;20542;-75
2022/12/28 04:02:24;;;;;;;3.90;1.80;;;7.30;91.90;;;;;;5116480;28;20047;-76
2022/12/28 04:04:49;;;;;;;2.38;1.60;;;7.30;91.90;;;;;;5134441;28;20122;-76
2022/12/28 04:07:15;;;;;;;2.80;1.75;;;7.30;91.90;;;;;;5134802;28;20039;-76
2022/12/28 04:09:41;;;;;;;3.38;1.70;;;7.40;92.00;;;;;;5099299;28;20047;-76
2022/12/28 04:12:06;;;;;;;2.70;1.73;;;7.40;91.90;;;;;;5134386;28;20122;-76
2022/12/28 04:14:32;;;;;;;2.40;1.85;;;7.40;91.90;;;;;;5134840;28;20138;-76
2022/12/28 04:16:57;;;;;;;4.47;2.00;;;7.40;91.90;;;;;;5116151;28;20035;-75
2022/12/28 04:19:23;;;;;;;3.83;1.95;;;7.40;92.00;;;;;;5134232;28;20027;-76
2022/12/28 04:21:49;;;;;;;3.17;2.05;;;7.40;92.00;;;;;;5134160;28;20498;-76
2022/12/28 04:24:14;;;;;;;3.25;1.90;;;7.40;92.00;;;;;;5098729;28;20043;-76
2022/12/28 04:26:40;;;;;;;4.55;2.17;;;7.50;92.10;;;;;;5115714;28;20123;-76
2022/12/28 04:29:05;;;;;;;3.17;1.90;;;7.50;92.10;;;;;;5098609;28;20069;-76
2022/12/28 04:31:31;;;;;;;3.70;2.00;;;7.40;92.10;;;;;;5116207;28;20111;-76
2022/12/28 04:33:57;;;;;;;3.05;1.92;;;7.60;92.10;;;;;;5134139;28;20566;-76
2022/12/28 04:36:23;;;;;;;3.40;1.90;;;7.50;92.10;;;;;;5115680;28;20035;-75
2022/12/28 04:38:49;;;;;;;2.53;1.60;;;7.50;92.10;;;;;;5098794;28;20043;-75
2022/12/28 04:41:15;;;;;;;2.90;1.73;;;7.50;92.10;;;;;;5134046;28;20035;-76
2022/12/28 04:43:41;;;;;;;3.85;1.65;;;7.50;92.20;;;;;;5133989;28;20047;-76
2022/12/28 04:46:10;;;;;;;2.88;1.75;;;7.60;92.20;;;;;;5116097;28;20071;-76
2022/12/28 04:48:36;;;;;;;3.63;2.17;;;7.60;92.20;;;;;;5098263;28;20068;-76
2022/12/28 04:51:07;;;;;;;3.30;1.98;;;7.60;92.20;;;;;;5115490;28;20482;-75
2022/12/28 04:53:37;;;;;;;2.88;1.77;;;7.60;92.20;;;;;;5098039;28;20031;-76
2022/12/28 04:56:04;;;;;;;2.90;1.77;;;7.70;92.30;;;;;;5133155;27;20438;-75
2022/12/28 04:58:30;;;;;;;3.42;2.13;;;7.70;92.30;;;;;;5115119;28;20470;-76
2022/12/28 05:01:02;;;;;;;4.47;2.10;;;7.70;92.30;;;;;;5115387;28;20434;-75
2022/12/28 05:03:28;;;;;;;3.70;2.08;;;7.70;92.30;;;;;;5133942;28;20482;-75
2022/12/28 05:05:53;;;;;;;3.00;1.90;;;7.70;92.30;;;;;;5133630;28;20050;-75
2022/12/28 05:08:19;;;;;;;3.58;2.10;;;7.70;92.40;;;;;;5133813;28;20035;-76
2022/12/28 05:10:45;;;;;;;2.50;1.70;;;7.70;92.40;;;;;;5081524;28;20046;-75
2022/12/28 05:13:10;;;;;;;3.38;1.92;;;7.70;92.40;;;;;;5134075;28;20064;-75
2022/12/28 05:15:37;;;;;;;2.53;1.70;;;7.80;92.40;;;;;;5114969;28;20074;-76
2022/12/28 05:18:03;;;;;;;2.80;1.80;;;7.80;92.40;;;;;;5115096;28;20035;-76
2022/12/28 05:20:28;;;;;;;3.13;1.88;;;7.80;92.40;;;;;;5115540;28;20097;-76
2022/12/28 05:22:54;;;;;;;3.20;1.80;;;7.80;92.40;;;;;;5133302;28;20039;-76
2022/12/28 05:25:19;;;;;;;3.45;1.98;;;7.80;92.40;;;;;;5115473;28;20502;-75
2022/12/28 05:27:45;;;;;;;4.20;2.08;;;7.80;92.40;;;;;;5081197;28;20049;-76
2022/12/28 05:30:11;;;;;;;5.07;2.22;;;7.80;92.40;;;;;;5114978;28;20047;-76
2022/12/28 05:32:36;;;;;;;3.40;1.88;;;7.90;92.50;;;;;;5133170;28;20494;-76
2022/12/28 05:35:02;;;;;;;2.95;1.77;;;7.90;92.50;;;;;;5114776;28;20408;-76
2022/12/28 05:37:28;;;;;;;2.47;1.70;;;7.90;92.50;;;;;;5133966;28;20027;-75
2022/12/28 05:39:53;;;;;;;4.10;1.75;;;7.90;92.50;;;;;;5133564;28;20039;-76
2022/12/28 05:42:19;;;;;;;3.20;1.90;;;7.90;92.80;;;;;;5134036;28;20077;-75
2022/12/28 05:44:44;;;;;;;2.60;1.80;;;8.00;92.50;;;;;;5098753;28;20063;-75
2022/12/28 05:47:10;;;;;;;2.85;1.77;;;7.90;92.50;;;;;;5134355;28;20505;-75
2022/12/28 05:49:36;;;;;;;2.92;1.80;;;8.00;92.60;;;;;;5134327;28;20124;-75
2022/12/28 05:52:01;;;;;;;2.70;1.65;;;8.00;92.60;;;;;;5115924;28;20039;-76
2022/12/28 05:54:27;;;;;;;3.53;1.80;;;8.00;92.60;;;;;;5116060;28;20486;-75
2022/12/28 05:56:52;;;;;;;2.42;1.60;;;8.10;92.60;;;;;;5098060;28;20047;-76
2022/12/28 05:59:18;;;;;;;3.38;1.80;;;8.10;92.60;;;;;;5133488;28;20132;-75
2022/12/28 06:01:44;;;;;;;3.35;1.80;;;8.10;92.70;;;;;;5133945;28;20039;-76
2022/12/28 06:04:16;;;;;;;2.63;1.85;;;8.00;92.60;;;;;;5114645;28;20065;-76
2022/12/28 06:06:42;;;;;;;2.72;1.83;;;8.10;92.70;;;;;;5099020;28;20082;-76
2022/12/28 06:09:08;;;;;;;3.17;1.98;;;8.00;92.70;;;;;;5136476;28;20046;-76
2022/12/28 06:11:33;;;;;;;3.10;1.60;;;8.10;92.70;;;;;;5120250;28;20039;-76
2022/12/28 06:14:00;;;;;;;2.85;1.70;;;8.20;92.70;;;;;;5137420;28;20410;-76
2022/12/28 06:16:28;;;;;;;2.65;1.40;;;8.20;92.70;;;;;;5138461;28;20039;-75
2022/12/28 06:18:54;;;;;;;2.65;1.70;;;8.20;92.70;;;;;;5119917;28;20417;-75
2022/12/28 06:21:23;;;;;;;2.22;1.50;;;8.20;92.70;;;;;;5136498;28;20095;-75
2022/12/28 06:23:49;;;;;;;2.22;1.38;;;8.20;92.70;;;;;;5119673;28;20046;-75
2022/12/28 06:26:16;;;;;;;3.03;1.73;;;8.20;92.70;;;;;;5104385;28;20047;-76
2022/12/28 06:28:42;;;;;;;2.13;1.80;;;8.20;92.70;;;;;;5103111;28;20031;-76
2022/12/28 06:31:14;;;;;;;3.28;1.70;;;8.30;92.80;;;;;;5119946;28;20096;-76
2022/12/28 06:33:40;;;;;;;3.42;1.70;;;8.30;92.80;;;;;;5136853;28;20039;-76
2022/12/28 06:36:16;;;;;;;1.75;1.30;;;8.30;92.80;;;;;;5137902;28;20043;-75
2022/12/28 06:38:43;;;;;;;2.13;1.40;;;8.30;92.80;;;;;;5137834;28;20102;-75
2022/12/28 06:41:10;;;;;;;2.38;1.60;;;8.30;92.80;;;;;;5136805;28;20027;-76
2022/12/28 06:43:37;;;;;;;1.92;1.38;;;8.30;92.80;;;;;;5119391;28;20039;-75
2022/12/28 06:46:04;;;;;;;2.35;1.40;;;8.30;92.80;;;;;;5138313;28;20545;-76
2022/12/28 06:48:31;;;;;;;1.95;1.50;;;8.40;92.90;;;;;;5084453;28;20393;-76
2022/12/28 06:50:59;;;;;;;1.58;1.30;;;8.40;92.90;;;;;;5120166;28;20493;-75
2022/12/28 06:53:28;;;;;;;2.28;1.30;;;8.40;92.80;;;;;;5101455;28;20085;-76
2022/12/28 06:55:56;;;;;;;2.25;1.40;;;8.40;92.80;;;;;;5101034;28;20402;-75
2022/12/28 06:58:23;;;;;;;2.10;1.50;;;8.40;92.80;;;;;;5136691;28;20070;-76
2022/12/28 07:00:48;;;;;;;2.45;1.38;;;8.40;92.80;;;;;;5137004;28;20043;-75
2022/12/28 07:03:14;;;;;;;1.48;1.02;;;8.50;92.90;;;;;;5117181;28;20043;-76
2022/12/28 07:05:40;;;;;;;2.35;1.10;;;8.50;92.90;;;;;;5100398;28;20509;-76
2022/12/28 07:08:05;;;;;;;1.52;1.20;;;8.50;92.90;;;;;;5135675;28;20496;-76
2022/12/28 07:10:32;;;;;;;2.10;1.40;;;8.50;92.90;;;;;;5117530;28;20039;-76
2022/12/28 07:12:58;;;;;;;2.03;1.20;;;8.50;92.90;;;;;;5117369;28;20031;-76
2022/12/28 07:15:23;;;;;;;2.67;1.17;;;8.60;92.90;;;;;;5100458;28;20654;-76
2022/12/28 07:17:49;;;;;;;2.78;1.23;;;8.60;92.90;;;;;;5082835;28;20039;-75
2022/12/28 07:20:15;;;;;;;1.88;1.10;;;8.60;92.90;;;;;;5100550;28;20422;-76
2022/12/28 07:22:41;;;;;;;1.60;1.23;;;8.60;92.90;;;;;;5101722;28;20142;-76
2022/12/28 07:25:07;;;;;;;1.70;1.30;;;8.60;92.90;;;;;;5118181;28;20051;-77
2022/12/28 07:27:34;;;;;;;2.40;1.38;;;8.60;92.90;;;;;;5117581;28;20398;-76
2022/12/28 07:30:00;;;;;;;1.77;1.40;;;8.60;92.80;;;;;;5100828;28;20531;-76
2022/12/28 07:32:26;;;;;;;1.70;1.20;;;8.60;92.80;;;;;;5136002;28;20431;-76
2022/12/28 07:34:52;;;;;;;2.55;1.55;;;8.60;92.90;;;;;;5117429;28;20494;-76
2022/12/28 07:37:18;;;;;;;1.48;1.27;;;8.60;92.90;;;;;;5136527;28;20035;-76
2022/12/28 07:39:43;;;;;;;1.50;1.10;;;8.60;92.90;;;;;;5117804;28;20115;-76
2022/12/28 07:42:10;;;;;;;1.63;1.25;;;8.70;92.90;;;;;;5117274;28;20039;-76
2022/12/28 07:44:37;;;;;;;1.42;1.20;;;8.70;92.90;;;;;;5135851;28;20035;-76
2022/12/28 07:47:03;;;;;;;1.20;1.10;;;8.70;92.90;;;;;;5135533;28;20043;-75
2022/12/28 07:49:28;;;;;;;1.88;1.17;;;8.70;92.90;;;;;;5134982;28;20039;-75
2022/12/28 07:51:54;;;;;;;1.90;1.40;;;8.70;93.10;;;;;;5099688;28;20092;-75
2022/12/28 07:54:19;;;;;;;2.40;1.30;;;8.80;92.90;;;;;;5135573;28;20039;-76
2022/12/28 07:56:45;;;;;;;3.03;1.13;;;8.80;92.90;;;;;;5100324;28;20035;-76
2022/12/28 07:59:12;;;;;;;1.73;1.23;;;8.80;92.90;;;;;;5099634;28;20035;-76
2022/12/28 08:01:38;;;;;;;1.60;1.27;;;8.80;92.90;;;;;;5099955;28;20043;-76
2022/12/28 08:04:08;;;;;;;0.90;0.90;;;8.80;92.90;;;;;;5135390;28;20099;-76
2022/12/28 08:06:37;;;;;;;1.48;1.00;;;8.80;92.90;;;;;;5116837;28;20047;-76
2022/12/28 08:09:03;;;;;;;2.70;1.30;;;8.80;92.90;;;;;;5100236;28;20080;-75
2022/12/28 08:11:31;;;;;;;1.73;1.20;;;8.80;92.90;;;;;;5098892;28;20432;-74
2022/12/28 08:13:58;;;;;;;1.98;1.40;;;8.80;92.90;;;;;;5134736;28;20069;-75
2022/12/28 08:16:25;;;;;;;2.60;1.38;;;8.80;92.90;;;;;;5134277;28;20588;-75
2022/12/28 08:18:51;;;;;;;1.50;1.40;;;8.80;92.90;;;;;;5115825;28;20035;-75
2022/12/28 08:21:22;;;;;;;2.25;1.40;;;8.90;93.00;;;;;;5134323;28;20100;-75
2022/12/28 08:23:48;;;;;;;1.17;1.08;;;8.80;93.00;;;;;;5116048;28;20035;-75
2022/12/28 08:26:19;;;;;;;1.70;1.23;;;8.80;93.30;;;;;;5116100;28;20050;-75
2022/12/28 08:28:46;;;;;;;1.50;1.17;;;8.80;93.00;;;;;;5115878;28;20478;-75
2022/12/28 08:31:18;;;;;;;3.05;1.35;;;8.80;93.00;;;;;;5115528;28;20043;-75
2022/12/28 08:33:44;;;;;;;2.13;1.27;;;8.90;93.00;;;;;;5115802;28;20436;-75
2022/12/28 08:36:10;;;;;;;2.50;1.80;;;8.90;93.00;;;;;;5115812;28;20043;-75
2022/12/28 08:38:37;;;;;;;1.83;1.40;;;8.90;93.00;;;;;;5134654;28;20035;-75
2022/12/28 08:41:05;;;;;;;1.98;1.40;;;8.90;93.00;;;;;;5133999;28;20086;-76
2022/12/28 08:43:32;;;;;;;2.00;1.40;;;9.00;93.00;;;;;;5135960;28;20069;-75
2022/12/28 08:46:01;;;;;;;1.60;1.25;;;8.90;93.00;;;;;;5115733;28;20043;-75
2022/12/28 08:48:28;;;;;;;2.55;1.23;;;8.90;93.00;;;;;;5134717;28;20047;-75
2022/12/28 08:50:54;;;;;;;1.30;1.13;;;8.90;93.00;;;;;;5116532;28;20039;-74
2022/12/28 08:53:23;;;;;;;2.10;1.13;;;9.00;93.00;;;;;;5134061;28;20039;-74
2022/12/28 08:55:50;;;;;;;3.15;1.55;;;9.00;93.00;;;;;;5115537;28;20065;-73
2022/12/28 08:58:16;;;;;;;2.15;1.30;;;9.00;93.00;;;;;;5133809;28;20513;-74
2022/12/28 09:00:41;;;;;;;1.70;1.20;;;9.10;93.00;;;;;;5133660;28;20053;-74
2022/12/28 09:03:07;;;;;;;1.85;1.10;;;9.10;93.00;;;;;;5133821;28;20043;-74
2022/12/28 09:05:36;;;;;;;1.75;1.00;;;9.10;93.00;;;;;;5133587;28;20070;-75
2022/12/28 09:08:02;;;;;;;1.63;1.15;;;9.10;93.10;;;;;;5115628;28;20045;-75
2022/12/28 09:10:27;;;;;;;1.50;1.05;;;9.10;93.00;;;;;;5133348;28;20138;-75
2022/12/28 09:12:53;;;;;;;1.08;0.98;;;9.10;93.00;;;;;;5115479;28;20043;-75
2022/12/28 09:15:19;;;;;;;1.10;1.00;;;9.10;93.00;;;;;;5133466;28;20035;-75
2022/12/28 09:17:44;;;;;;;1.00;0.90;;;9.00;93.00;;;;;;5097853;28;20486;-75
2022/12/28 09:20:10;;;;;;;1.13;0.90;;;9.00;93.00;;;;;;5114978;28;20043;-75
2022/12/28 09:22:35;;;;;;;1.42;1.15;;;9.00;93.00;;;;;;5097903;28;20443;-73
2022/12/28 09:25:01;;;;;;;1.10;1.00;;;9.00;93.10;;;;;;5114840;28;20039;-73
2022/12/28 09:27:27;;;;;;;1.50;1.10;;;9.00;93.10;;;;;;5114864;28;20092;-74
2022/12/28 09:29:52;;;;;;;1.50;1.08;;;9.00;93.40;;;;;;5114732;28;20416;-74
2022/12/28 09:32:18;;;;;;;1.20;1.00;;;9.00;93.10;;;;;;5133445;28;20047;-74
2022/12/28 09:34:44;;;;;;;1.50;1.20;;;9.00;93.20;;;;;;5080712;28;20043;-74
2022/12/28 09:37:09;;;;;;;2.33;1.42;;;9.00;93.20;;;;;;5114918;28;20031;-73
2022/12/28 09:39:35;;;;;;;2.20;1.30;;;9.00;93.20;;;;;;5098004;28;20118;-73
2022/12/28 09:42:11;;;;;;;1.50;1.25;;;9.00;93.20;;;;;;5134424;27;20076;-74
2022/12/28 09:44:46;;;;;;;1.95;1.30;;;9.00;93.20;;;;;;5137321;28;20538;-73
2022/12/28 09:47:36;;;;;;;1.10;1.00;;;9.00;93.20;;;;;;5118541;28;20047;-74
2022/12/28 09:50:27;;;;;;;2.60;1.20;;;9.10;93.20;;;;;;5122182;28;20064;-74
2022/12/28 09:53:15;;;;;;;2.72;1.42;;;9.00;93.20;;;;;;5104590;28;20505;-73
2022/12/28 09:55:50;;;;;;;3.85;1.30;;;9.10;93.10;;;;;;5136384;28;20039;-73
2022/12/28 09:58:16;;;;;;;2.28;1.45;;;9.10;93.10;;;;;;5118007;28;20433;-73
2022/12/28 10:00:44;;;;;;;1.95;1.50;;;9.10;93.10;;;;;;5118365;28;20043;-73
2022/12/28 10:03:31;;;;;;;2.85;1.35;;;9.10;93.10;;;;;;5136707;28;20459;-73
2022/12/28 10:05:57;;;;;;;1.23;1.13;;;9.10;93.20;;;;;;5136646;28;20095;-73
2022/12/28 10:08:24;;;;;;;1.90;1.20;;;9.00;93.10;;;;;;5136498;28;20039;-73
2022/12/28 10:10:52;;;;;;;2.72;1.38;;;9.00;93.20;;;;;;5136307;28;20425;-73
2022/12/28 10:13:21;;;;;;;2.88;1.30;;;9.10;93.20;;;;;;5136560;28;20082;-73
2022/12/28 10:15:48;;;;;;;2.22;1.00;;;9.10;93.20;;;;;;5101074;28;20057;-73
2022/12/28 10:18:14;;;;;;;2.17;1.30;;;9.10;93.20;;;;;;5117836;28;20086;-73
2022/12/28 10:20:42;;;;;;;2.17;1.20;;;9.10;93.20;;;;;;5100692;28;20073;-73
2022/12/28 10:23:14;;;;;;;2.10;1.20;;;9.00;93.20;;;;;;5117777;28;20142;-73
2022/12/28 10:25:39;;;;;;;;;;;9.10;93.30;;;;;;5136350;28;20039;-73
2022/12/28 10:28:07;;;;;;;1.20;1.10;;;9.10;93.30;;;;;;5117537;28;19911;-73
2022/12/28 10:30:44;;;;;;;2.10;1.10;;;9.10;93.20;;;;;;5135975;28;20043;-73
2022/12/28 10:33:16;;;;;;;1.13;1.02;;;9.10;93.30;;;;;;5136494;28;20146;-73
2022/12/28 10:35:47;;;;;;;;;;;9.10;93.30;;;;;;5136789;28;20039;-73
2022/12/28 10:38:25;;;;;;;1.73;1.00;;;9.10;93.30;;;;;;5135871;28;19968;-73
2022/12/28 10:41:10;;;;;;;2.35;1.30;;;9.10;93.30;;;;;;5117718;28;20032;-73
2022/12/28 10:43:39;;;;;;;1.40;1.10;;;9.20;93.30;;;;;;5135860;28;20047;-73
2022/12/28 10:46:15;;;;;;;1.55;1.15;;;9.10;93.20;;;;;;5118178;28;20069;-73
2022/12/28 10:48:50;;;;;;;1.85;1.27;;;9.20;93.30;;;;;;5118014;28;20035;-73
2022/12/28 10:51:19;;;;;;;2.13;1.42;;;9.10;93.20;;;;;;5117484;28;20119;-74
2022/12/28 10:53:48;;;;;;;2.58;1.30;;;9.20;93.50;;;;;;5116720;28;20039;-73
2022/12/28 10:56:28;;;;;;;1.20;1.10;;;9.20;93.20;;;;;;5135877;28;20043;-73
2022/12/28 10:59:19;;;;;;;1.73;1.13;;;9.20;93.30;;;;;;5135684;28;20483;-73
2022/12/28 11:01:44;;;;;;;1.20;0.90;;;9.20;93.30;;;;;;5135658;28;20046;-73
2022/12/28 11:04:20;;;;;;;1.48;1.00;;;9.30;93.30;;;;;;5117072;28;20126;-73
2022/12/28 11:06:59;;;;;;;0.80;0.80;;;9.30;93.30;;;;;;5135997;28;20451;-74
2022/12/28 11:09:28;;;;;;;1.90;1.00;;;9.30;93.30;;;;;;5135354;28;20490;-73
2022/12/28 11:12:13;;;;;;;1.75;1.10;;;9.30;93.30;;;;;;5117310;28;20509;-73
2022/12/28 11:14:39;;;;;;;1.38;1.00;;;9.30;93.30;;;;;;5135749;28;20042;-73
2022/12/28 11:17:22;;;;;;;0.95;0.90;;;9.30;93.30;;;;;;5135398;28;20039;-73
2022/12/28 11:19:50;;;;;;;1.33;1.00;;;9.30;93.30;;;;;;5117028;28;20036;-73
2022/12/28 11:22:22;;;;;;;2.38;0.93;;;9.30;93.30;;;;;;5135660;28;20470;-73
2022/12/28 11:24:48;;;;;;;1.30;0.88;;;9.30;93.30;;;;;;5116799;28;20039;-73
2022/12/28 11:27:18;;;;;;;1.27;0.80;;;9.30;93.30;;;;;;5116703;28;20059;-73
2022/12/28 11:29:46;;;;;;;1.30;0.80;;;9.30;93.30;;;;;;5116862;28;20039;-73
2022/12/28 11:32:20;;;;;;;0.75;0.75;;;9.30;93.30;;;;;;5135082;28;20042;-73
2022/12/28 11:34:46;;;;;;;1.20;0.88;;;9.30;93.30;;;;;;5135342;28;20065;-73
2022/12/28 11:37:13;;;;;;;1.15;0.93;;;9.30;93.40;;;;;;5116664;28;20057;-73
2022/12/28 11:39:45;;;;;;;0.90;0.80;;;9.30;93.40;;;;;;5099762;28;20031;-73
2022/12/28 11:42:32;;;;;;;1.05;0.90;;;9.30;93.40;;;;;;5134902;28;20057;-73
2022/12/28 11:45:00;;;;;;;0.80;0.80;;;9.40;93.40;;;;;;5135124;28;20054;-74
2022/12/28 11:47:32;;;;;;;1.00;0.90;;;9.30;93.40;;;;;;5135199;28;20043;-73
2022/12/28 11:50:32;;;;;;;0.60;0.60;;;9.30;93.30;;;;;;5117004;28;20493;-73
2022/12/28 11:53:00;;;;;;;0.90;0.70;;;9.40;93.40;;;;;;5134542;28;20036;-73
2022/12/28 11:55:48;;;;;;;1.27;0.95;;;9.40;93.40;;;;;;5134785;28;20312;-74
2022/12/28 11:58:42;;;;;;;1.52;0.80;;;9.40;93.40;;;;;;5134787;28;20042;-74
2022/12/28 12:01:11;;;;;;;1.95;0.80;;;9.40;93.40;;;;;;5135124;28;20470;-73
2022/12/28 12:04:13;;;;;;;1.27;0.85;;;9.40;93.40;;;;;;5134454;28;20086;-73
2022/12/28 12:07:13;;;;;;;1.05;0.80;;;9.40;93.40;;;;;;5132780;28;20051;-72
2022/12/28 12:09:42;;;;;;;1.20;0.90;;;9.40;93.40;;;;;;5104581;28;20047;-73
2022/12/28 12:12:33;;;;;;;1.10;0.90;;;9.40;93.30;;;;;;5113994;28;20062;-73
2022/12/28 12:15:19;;;;;;;1.63;1.10;;;9.40;93.40;;;;;;5102456;28;20039;-74
2022/12/28 12:17:50;;;;;;;1.38;1.00;;;9.40;93.30;;;;;;5134053;28;20313;-73
2022/12/28 12:20:40;;;;;;;1.00;0.80;;;9.50;93.30;;;;;;5116666;28;20032;-73
2022/12/28 12:23:16;;;;;;;1.73;1.00;;;9.50;93.40;;;;;;5134227;28;20035;-73
2022/12/28 12:25:47;;;;;;;1.60;1.05;;;9.50;93.40;;;;;;5134497;28;20043;-73
2022/12/28 12:28:46;;;;;;;1.13;1.00;;;9.40;93.30;;;;;;5116052;28;20039;-73
2022/12/28 12:31:19;;;;;;;1.60;0.90;;;9.40;93.40;;;;;;5118818;28;20122;-73
2022/12/28 12:33:47;;;;;;;2.15;1.05;;;9.40;93.40;;;;;;5116707;28;20108;-74
2022/12/28 12:36:38;;;;;;;2.15;1.20;;;9.50;93.40;;;;;;5134668;28;20043;-73
2022/12/28 12:39:36;;;;;;;2.17;1.15;;;9.40;93.40;;;;;;5134414;28;20062;-73
2022/12/28 12:42:37;;;;;;;1.50;1.00;;;9.40;93.40;;;;;;5133910;28;20067;-73
2022/12/28 12:45:37;;;;;;;1.92;1.15;;;9.50;93.40;;;;;;5119163;28;20042;-74
2022/12/28 12:48:27;;;;;;;3.85;1.40;;;9.40;93.40;;;;;;5133674;28;20047;-73
2022/12/28 12:51:32;;;;;;;2.55;1.10;;;9.40;93.40;;;;;;5115327;28;20059;-73
2022/12/28 12:54:37;;;;;;;1.27;1.00;;;9.40;93.40;;;;;;5118263;28;20047;-74
2022/12/28 12:57:22;;;;;;;1.92;1.33;;;9.40;93.40;;;;;;5133557;28;20125;-73
2022/12/28 13:00:11;;;;;;;1.50;1.13;;;9.40;93.40;;;;;;5133633;28;20035;-73
2022/12/28 13:02:59;;;;;;;2.25;1.30;;;9.50;93.40;;;;;;5133509;28;20065;-74
2022/12/28 13:05:28;;;;;;;2.05;1.15;;;9.40;93.30;;;;;;5133449;28;20042;-73
2022/12/28 13:07:56;;;;;;;2.30;1.20;;;9.40;93.30;;;;;;5133682;28;20091;-73
2022/12/28 13:10:32;;;;;;;2.05;1.10;;;9.50;93.30;;;;;;5133900;28;20042;-73
2022/12/28 13:13:00;;;;;;;2.53;1.08;;;9.50;93.60;;;;;;5133818;28;20067;-73
2022/12/28 13:15:26;;;;;;;1.70;1.00;;;9.50;93.30;;;;;;5133483;27;20070;-73
2022/12/28 13:18:03;;;;;;;3.53;1.13;;;9.50;93.30;;;;;;5115180;28;20118;-73
2022/12/28 13:20:30;;;;;;;2.78;1.17;;;9.50;93.30;;;;;;5115944;28;20039;-74
2022/12/28 13:22:56;;;;;;;3.35;1.20;;;9.60;93.30;;;;;;5098114;28;20547;-73
2022/12/28 13:25:26;;;;;;;1.50;1.10;;;9.50;93.20;;;;;;5133642;28;20121;-73
2022/12/28 13:27:51;;;;;;;2.67;1.02;;;9.60;93.30;;;;;;5114779;28;20039;-73
2022/12/28 13:30:18;;;;;;;2.85;1.15;;;9.60;93.30;;;;;;5133202;28;20053;-73
2022/12/28 13:32:54;;;;;;;2.22;1.20;;;9.60;93.30;;;;;;5133346;28;20092;-73
2022/12/28 13:35:23;;;;;;;1.88;1.30;;;9.60;93.20;;;;;;5133034;28;20069;-73
2022/12/28 13:38:02;;;;;;;3.78;1.90;;;9.60;93.20;;;;;;5133059;28;20050;-73
2022/12/28 13:40:30;;;;;;;6.18;4.05;;;9.50;93.20;;;;;;5133453;28;20039;-73
2022/12/28 13:43:21;;;;;;;6.07;4.00;;;9.60;93.20;;;;;;5132857;28;20035;-73